Terminal Aerodrome Forecast
Issued by NWS

Home | Current Version | Previous Version | Text Only | Print | Product List | Glossary On
Versions: 1 2 3 4 5 6 7 8 9 10 11 12 13 14 15 16 17 18
000
FTUS42 KMLB 280500
TAFFPR
TAF
KFPR 280528Z 2806/2906 33009KT P6SM SKC
     FM281800 01012KT P6SM SCT035
     FM290000 02007KT P6SM FEW035=

USA.gov is the U.S. government's official web portal to all federal, state and local government web resources and services.